createdAt,value
2023-03-26T00:02:23.279Z,8.76
2023-03-26T00:05:30.408Z,8.77
2023-03-26T00:08:36.803Z,8.78
2023-03-26T00:11:44.074Z,8.79
2023-03-26T00:14:51.107Z,8.79
2023-03-26T00:17:56.630Z,8.77
2023-03-26T00:21:02.615Z,8.76
2023-03-26T00:24:12.546Z,8.72
2023-03-26T00:27:17.648Z,8.69
2023-03-26T00:30:24.105Z,8.61
2023-03-26T00:33:30.748Z,8.55
2023-03-26T00:36:37.768Z,8.50
2023-03-26T00:39:46.749Z,8.47
2023-03-26T00:42:53.319Z,8.44
2023-03-26T00:46:03.847Z,8.44
2023-03-26T00:49:11.492Z,8.48
2023-03-26T00:52:18.082Z,8.48
2023-03-26T00:55:25.674Z,8.51
2023-03-26T00:58:32.611Z,8.54
2023-03-26T01:01:40.671Z,8.55
2023-03-26T01:04:51.678Z,8.59
2023-03-26T01:07:58.146Z,8.63
2023-03-26T01:11:05.284Z,8.64
2023-03-26T01:14:18.200Z,8.65
2023-03-26T01:17:23.940Z,8.64
2023-03-26T01:20:37.535Z,8.65
2023-03-26T01:23:46.781Z,8.66
2023-03-26T01:27:12.277Z,8.69
2023-03-26T01:30:45.611Z,8.74
2023-03-26T01:34:02.564Z,8.75
2023-03-26T01:37:42.518Z,8.78
2023-03-26T01:41:03.163Z,8.75
2023-03-26T01:44:43.289Z,8.76
2023-03-26T01:47:50.262Z,8.77
2023-03-26T01:50:58.965Z,8.82
2023-03-26T01:54:05.812Z,8.81
2023-03-26T01:57:18.983Z,8.82
2023-03-26T02:00:48.386Z,8.83
2023-03-26T02:04:05.185Z,8.87
2023-03-26T02:07:18.563Z,8.90
2023-03-26T02:10:42.538Z,8.92
2023-03-26T02:13:48.859Z,8.92
2023-03-26T02:16:55.352Z,8.82
2023-03-26T02:20:00.865Z,8.76
2023-03-26T02:23:07.952Z,8.73
2023-03-26T02:26:13.404Z,8.63
2023-03-26T02:29:30.488Z,8.61
2023-03-26T02:32:36.348Z,8.62
2023-03-26T02:35:43.613Z,8.61
2023-03-26T02:38:50.763Z,8.60
2023-03-26T02:41:56.926Z,8.62
2023-03-26T02:45:05.965Z,8.63
2023-03-26T02:48:29.592Z,8.64
2023-03-26T02:51:39.738Z,8.63
2023-03-26T02:54:53.910Z,8.55
2023-03-26T02:58:00.791Z,8.46
2023-03-26T03:01:12.429Z,8.48
2023-03-26T03:04:27.617Z,8.46
2023-03-26T03:07:34.192Z,8.34
2023-03-26T03:10:41.244Z,8.27
2023-03-26T03:13:48.686Z,8.30
2023-03-26T03:16:57.659Z,8.32
2023-03-26T03:20:03.171Z,8.28
2023-03-26T03:23:09.524Z,8.27
2023-03-26T03:26:09.210Z,8.31
2023-03-26T03:29:20.678Z,8.35
2023-03-26T03:32:29.921Z,8.37
2023-03-26T03:35:36.582Z,8.39
2023-03-26T03:38:44.787Z,8.39
2023-03-26T03:41:52.363Z,8.38
2023-03-26T03:44:58.556Z,8.36
2023-03-26T03:48:16.573Z,8.34
2023-03-26T03:51:23.285Z,8.31
2023-03-26T03:54:31.671Z,8.31
2023-03-26T03:57:41.716Z,8.30
2023-03-26T04:00:52.104Z,8.29
2023-03-26T04:04:16.803Z,8.32
2023-03-26T04:07:34.282Z,8.33
2023-03-26T04:10:55.969Z,8.39
2023-03-26T04:14:08.553Z,8.47
2023-03-26T04:17:17.571Z,8.53
2023-03-26T04:20:26.129Z,8.57
2023-03-26T04:23:33.620Z,8.61
2023-03-26T04:26:42.242Z,8.63
2023-03-26T04:29:59.177Z,8.65
2023-03-26T04:33:07.630Z,8.69
2023-03-26T04:36:14.600Z,8.73
2023-03-26T04:39:21.210Z,8.74
2023-03-26T04:42:46.492Z,8.74
2023-03-26T04:45:59.874Z,8.76
2023-03-26T04:49:07.634Z,8.81
2023-03-26T04:52:13.737Z,8.84
2023-03-26T04:55:25.216Z,8.85
2023-03-26T04:58:34.426Z,8.83
2023-03-26T05:01:39.841Z,8.85
2023-03-26T05:04:50.356Z,8.86
2023-03-26T05:07:57.333Z,8.84
2023-03-26T05:11:04.379Z,8.83
2023-03-26T05:14:10.039Z,8.86
2023-03-26T05:17:17.989Z,8.89
2023-03-26T05:20:29.135Z,8.90
2023-03-26T05:23:36.473Z,8.93
2023-03-26T05:26:48.327Z,8.94
2023-03-26T05:29:57.399Z,8.94
2023-03-26T05:33:07.322Z,8.93
2023-03-26T05:36:25.848Z,8.89
2023-03-26T05:39:50.773Z,8.88
2023-03-26T05:43:05.085Z,8.84
2023-03-26T05:46:14.288Z,8.84
2023-03-26T05:49:21.020Z,8.84
2023-03-26T05:52:27.618Z,8.87
2023-03-26T05:55:55.438Z,8.90
2023-03-26T05:59:19.944Z,8.95
2023-03-26T06:02:43.903Z,8.96
2023-03-26T06:06:00.494Z,8.98
2023-03-26T06:09:11.928Z,8.97
2023-03-26T06:12:17.791Z,9.00
2023-03-26T06:15:25.653Z,9.07
2023-03-26T06:18:34.099Z,9.13
2023-03-26T06:21:42.366Z,9.15
2023-03-26T06:24:53.496Z,9.15
2023-03-26T06:28:19.795Z,9.16
2023-03-26T06:31:31.422Z,9.17
2023-03-26T06:34:50.032Z,9.17
2023-03-26T06:37:57.416Z,9.18
2023-03-26T06:41:05.512Z,9.20
2023-03-26T06:44:17.585Z,9.20
2023-03-26T06:47:43.660Z,9.19
2023-03-26T06:50:57.601Z,9.22
2023-03-26T06:54:07.796Z,9.19
2023-03-26T06:57:28.344Z,9.19
2023-03-26T07:00:50.504Z,9.19
2023-03-26T07:04:14.376Z,9.21
2023-03-26T07:07:45.765Z,9.24
2023-03-26T07:11:03.957Z,9.25
2023-03-26T07:14:22.826Z,9.28
2023-03-26T07:17:47.663Z,9.32
2023-03-26T07:20:56.038Z,9.36
2023-03-26T07:24:04.546Z,9.37
2023-03-26T07:27:31.147Z,9.29
2023-03-26T07:31:15.521Z,9.29
2023-03-26T07:34:45.338Z,9.39
2023-03-26T07:37:58.601Z,9.47
2023-03-26T07:41:32.779Z,9.53
2023-03-26T07:45:08.166Z,9.58
2023-03-26T07:48:36.785Z,9.58
2023-03-26T07:51:47.657Z,9.54
2023-03-26T07:54:58.223Z,9.56
2023-03-26T07:58:29.264Z,9.61
2023-03-26T08:02:27.667Z,9.69
2023-03-26T08:05:49.037Z,9.72
2023-03-26T08:09:25.651Z,9.75
2023-03-26T08:12:42.717Z,9.71
2023-03-26T08:15:56.414Z,9.70
2023-03-26T08:19:39.532Z,9.75
2023-03-26T08:22:49.750Z,9.80
2023-03-26T08:26:17.575Z,9.79
2023-03-26T08:29:48.947Z,9.87
2023-03-26T08:32:57.211Z,9.85
2023-03-26T08:36:04.482Z,9.86
2023-03-26T08:39:10.938Z,9.93
2023-03-26T08:42:50.389Z,9.96
2023-03-26T08:46:03.912Z,10.00
2023-03-26T08:49:40.995Z,9.99
2023-03-26T08:53:32.031Z,10.03
2023-03-26T08:56:58.241Z,10.07
2023-03-26T09:00:35.779Z,10.09
2023-03-26T09:04:07.545Z,10.12
2023-03-26T09:07:54.401Z,10.12
2023-03-26T09:11:50.919Z,10.14
2023-03-26T09:15:37.724Z,10.20
2023-03-26T09:19:06.244Z,10.24
2023-03-26T09:22:47.313Z,10.23
2023-03-26T09:26:31.294Z,10.23
2023-03-26T09:30:25.382Z,10.23
2023-03-26T09:33:54.046Z,10.22
2023-03-26T09:37:34.550Z,10.22
2023-03-26T09:40:54.985Z,10.27
2023-03-26T09:44:53.231Z,10.33
2023-03-26T09:48:38.040Z,10.36
2023-03-26T09:51:55.065Z,10.32
2023-03-26T09:55:18.655Z,10.36
2023-03-26T09:58:45.257Z,10.42
2023-03-26T10:02:12.752Z,10.47
2023-03-26T10:05:52.733Z,10.51
2023-03-26T10:09:05.767Z,10.52
2023-03-26T10:12:25.498Z,10.49
2023-03-26T10:15:59.339Z,10.46
2023-03-26T10:19:27.415Z,10.45
2023-03-26T10:22:59.920Z,10.47
2023-03-26T10:26:41.154Z,10.50
2023-03-26T10:30:25.338Z,10.55
2023-03-26T10:33:53.272Z,10.59
2023-03-26T10:37:25.770Z,10.63
2023-03-26T10:40:57.185Z,10.68
2023-03-26T10:44:53.176Z,10.71
2023-03-26T10:48:15.690Z,10.70
2023-03-26T10:51:45.085Z,10.75
2023-03-26T10:55:18.509Z,10.80
2023-03-26T10:58:48.398Z,10.77
2023-03-26T11:02:19.690Z,10.73
2023-03-26T11:05:55.337Z,10.72
2023-03-26T11:09:37.100Z,10.75
2023-03-26T11:12:58.229Z,10.84
2023-03-26T11:16:16.813Z,10.91
2023-03-26T11:19:35.387Z,11.00
2023-03-26T11:22:54.132Z,11.12
2023-03-26T11:26:16.342Z,11.22
2023-03-26T11:29:57.729Z,11.23
2023-03-26T11:33:16.644Z,11.20
2023-03-26T11:36:35.763Z,11.16
2023-03-26T11:39:45.359Z,11.13
2023-03-26T11:42:52.000Z,11.14
2023-03-26T11:46:01.858Z,11.21
2023-03-26T11:49:18.460Z,11.23
2023-03-26T11:52:26.548Z,11.27
2023-03-26T11:55:35.443Z,11.31
2023-03-26T11:58:45.298Z,11.33
2023-03-26T12:02:13.576Z,11.35
2023-03-26T12:05:30.300Z,11.41
2023-03-26T12:08:46.323Z,11.46
2023-03-26T12:11:52.402Z,11.46
2023-03-26T12:14:58.903Z,11.44
2023-03-26T12:18:08.734Z,11.47
2023-03-26T12:21:30.585Z,11.49
2023-03-26T12:24:48.009Z,11.53
2023-03-26T12:28:01.928Z,11.55
2023-03-26T12:31:15.212Z,11.58
2023-03-26T12:34:32.096Z,11.61
2023-03-26T12:37:51.555Z,11.62
2023-03-26T12:40:58.938Z,11.63
2023-03-26T12:44:49.799Z,11.62
2023-03-26T12:48:00.156Z,11.62
2023-03-26T12:50:57.792Z,11.62
2023-03-26T12:54:47.207Z,11.65
2023-03-26T12:58:13.533Z,11.68
2023-03-26T13:01:25.070Z,11.67
2023-03-26T13:05:04.310Z,11.63
2023-03-26T13:08:29.188Z,11.59
2023-03-26T13:12:09.774Z,11.60
2023-03-26T13:15:31.745Z,11.61
2023-03-26T13:18:52.064Z,11.61
2023-03-26T13:22:07.648Z,11.63
2023-03-26T13:25:31.237Z,11.65
2023-03-26T13:29:09.500Z,11.66
2023-03-26T13:32:26.647Z,11.67
2023-03-26T13:35:50.132Z,11.71
2023-03-26T13:39:11.840Z,11.73
2023-03-26T13:42:35.164Z,11.76
2023-03-26T13:45:58.842Z,11.79
2023-03-26T13:49:12.969Z,11.83
2023-03-26T13:52:26.804Z,11.87
2023-03-26T13:55:52.461Z,11.92
2023-03-26T13:59:16.074Z,11.95
2023-03-26T14:02:30.587Z,11.95
2023-03-26T14:05:58.317Z,11.98
2023-03-26T14:09:12.602Z,12.03
2023-03-26T14:12:40.837Z,12.02
2023-03-26T14:16:19.768Z,11.97
2023-03-26T14:19:48.362Z,11.95
2023-03-26T14:23:24.727Z,11.91
2023-03-26T14:27:00.738Z,11.89
2023-03-26T14:30:43.377Z,11.90
2023-03-26T14:34:14.457Z,11.93
2023-03-26T14:37:39.455Z,11.94
2023-03-26T14:41:10.314Z,11.95
2023-03-26T14:44:47.615Z,11.94
2023-03-26T14:47:54.303Z,11.92
2023-03-26T14:51:29.576Z,11.91
2023-03-26T14:54:38.557Z,11.90
2023-03-26T14:57:58.514Z,11.83
2023-03-26T15:01:28.665Z,11.79
2023-03-26T15:05:29.671Z,11.75
2023-03-26T15:09:18.739Z,11.73
2023-03-26T15:13:04.255Z,11.71
2023-03-26T15:16:28.215Z,11.69
2023-03-26T15:19:56.602Z,11.66
2023-03-26T15:23:23.574Z,11.66
2023-03-26T15:27:03.563Z,11.67
2023-03-26T15:30:41.733Z,11.61
2023-03-26T15:34:05.645Z,11.55
2023-03-26T15:37:41.698Z,11.52
2023-03-26T15:41:06.034Z,11.49
2023-03-26T15:44:24.834Z,11.47
2023-03-26T15:47:58.566Z,11.44
2023-03-26T15:51:20.914Z,11.40
2023-03-26T15:55:08.114Z,11.28
2023-03-26T15:58:30.745Z,11.16
2023-03-26T16:02:23.329Z,11.05
2023-03-26T16:06:13.779Z,10.98
2023-03-26T16:09:30.133Z,10.91
2023-03-26T16:12:53.676Z,10.87
2023-03-26T16:16:13.138Z,10.81
2023-03-26T16:19:52.620Z,10.77
2023-03-26T16:23:15.176Z,10.73
2023-03-26T16:26:38.817Z,10.68
2023-03-26T16:29:49.505Z,10.55
2023-03-26T16:33:02.037Z,10.50
2023-03-26T16:36:11.375Z,10.46
2023-03-26T16:39:24.972Z,10.41
2023-03-26T16:42:53.667Z,10.37
2023-03-26T16:46:13.657Z,10.40
2023-03-26T16:49:40.033Z,10.45
2023-03-26T16:53:12.605Z,10.49
2023-03-26T16:56:45.582Z,10.56
2023-03-26T17:00:31.793Z,10.61
2023-03-26T17:04:00.843Z,10.63
2023-03-26T17:07:32.744Z,10.66
2023-03-26T17:10:57.845Z,10.69
2023-03-26T17:14:33.899Z,10.71
2023-03-26T17:17:54.628Z,10.73
2023-03-26T17:21:19.887Z,10.76
2023-03-26T17:24:50.281Z,10.78
2023-03-26T17:28:51.518Z,10.81
2023-03-26T17:32:06.647Z,10.81
2023-03-26T17:35:15.513Z,10.82
2023-03-26T17:38:45.255Z,10.84
2023-03-26T17:42:11.301Z,10.83
2023-03-26T17:45:28.686Z,10.79
2023-03-26T17:48:36.413Z,10.73
2023-03-26T17:52:12.180Z,10.67
2023-03-26T17:55:18.472Z,10.63
2023-03-26T17:58:54.697Z,10.54
2023-03-26T18:02:02.755Z,10.50
2023-03-26T18:05:08.251Z,10.46
2023-03-26T18:08:59.516Z,10.44
2023-03-26T18:12:51.158Z,10.40
2023-03-26T18:16:08.505Z,10.38
2023-03-26T18:19:19.093Z,10.32
2023-03-26T18:22:40.382Z,10.28
2023-03-26T18:25:47.723Z,10.25
2023-03-26T18:29:01.367Z,10.21
2023-03-26T18:32:28.542Z,10.19
2023-03-26T18:35:35.493Z,10.15
2023-03-26T18:38:42.980Z,10.13
2023-03-26T18:41:52.589Z,10.13
2023-03-26T18:45:03.381Z,10.13
2023-03-26T18:48:17.578Z,10.13
2023-03-26T18:51:26.313Z,10.14
2023-03-26T18:54:34.599Z,10.13
2023-03-26T18:57:43.304Z,10.13
2023-03-26T19:00:52.442Z,10.13
2023-03-26T19:03:59.997Z,10.13
2023-03-26T19:07:05.510Z,10.14
2023-03-26T19:10:13.092Z,10.13
2023-03-26T19:13:23.013Z,10.12
2023-03-26T19:16:39.545Z,10.12
2023-03-26T19:19:50.061Z,10.12
2023-03-26T19:22:55.756Z,10.12
2023-03-26T19:26:05.740Z,10.13
2023-03-26T19:29:14.865Z,10.12
2023-03-26T19:32:38.601Z,10.12
2023-03-26T19:35:45.176Z,10.11
2023-03-26T19:39:04.311Z,10.10
2023-03-26T19:42:13.525Z,10.11
2023-03-26T19:45:21.243Z,10.12
2023-03-26T19:48:45.826Z,10.13
2023-03-26T19:51:48.206Z,10.14
2023-03-26T19:55:19.471Z,10.15
2023-03-26T19:58:27.768Z,10.15
2023-03-26T20:01:44.377Z,10.16
2023-03-26T20:04:50.183Z,10.15
2023-03-26T20:07:57.301Z,10.16
2023-03-26T20:11:03.650Z,10.18
2023-03-26T20:14:09.866Z,10.20
2023-03-26T20:17:16.520Z,10.21
2023-03-26T20:20:28.000Z,10.22
2023-03-26T20:23:34.508Z,10.20
2023-03-26T20:26:40.881Z,10.16
2023-03-26T20:29:46.971Z,10.14
2023-03-26T20:33:12.341Z,10.12
2023-03-26T20:36:08.866Z,10.12
2023-03-26T20:39:14.530Z,10.15
2023-03-26T20:42:21.299Z,10.15
2023-03-26T20:45:37.416Z,10.18
2023-03-26T20:48:45.526Z,10.19
2023-03-26T20:51:55.856Z,10.19
2023-03-26T20:55:02.910Z,10.18
2023-03-26T20:58:10.030Z,10.14
2023-03-26T21:01:17.343Z,10.11
2023-03-26T21:04:24.367Z,10.06
2023-03-26T21:07:30.313Z,10.01
2023-03-26T21:10:37.362Z,9.99
2023-03-26T21:13:52.751Z,9.96
2023-03-26T21:17:02.117Z,9.97
2023-03-26T21:20:11.678Z,9.96
2023-03-26T21:23:30.016Z,9.98
2023-03-26T21:27:00.351Z,10.01
2023-03-26T21:30:09.155Z,10.05
2023-03-26T21:33:15.105Z,10.07
2023-03-26T21:36:22.777Z,10.09
2023-03-26T21:39:28.940Z,10.12
2023-03-26T21:42:36.810Z,10.11
2023-03-26T21:45:44.635Z,10.11
2023-03-26T21:48:52.175Z,10.11
2023-03-26T21:51:59.216Z,10.12
2023-03-26T21:55:07.790Z,10.14
2023-03-26T21:58:35.449Z,10.16
2023-03-26T22:01:52.460Z,10.20
2023-03-26T22:05:11.019Z,10.20
2023-03-26T22:08:18.694Z,10.21
2023-03-26T22:11:25.266Z,10.21
2023-03-26T22:14:33.570Z,10.21
2023-03-26T22:17:39.503Z,10.22
2023-03-26T22:20:45.222Z,10.23
2023-03-26T22:23:54.464Z,10.22
2023-03-26T22:27:02.254Z,10.23
2023-03-26T22:30:07.592Z,10.23
2023-03-26T22:33:19.649Z,10.22
2023-03-26T22:36:26.990Z,10.22
2023-03-26T22:39:34.599Z,10.21
2023-03-26T22:42:41.700Z,10.23
2023-03-26T22:45:48.075Z,10.22
2023-03-26T22:48:58.523Z,10.21
2023-03-26T22:52:06.433Z,10.20
2023-03-26T22:55:13.879Z,10.19
2023-03-26T22:58:15.905Z,10.18
2023-03-26T23:01:27.045Z,10.15
2023-03-26T23:04:37.863Z,10.14
2023-03-26T23:07:44.591Z,10.09
2023-03-26T23:10:50.805Z,10.05
2023-03-26T23:13:56.990Z,10.01
2023-03-26T23:17:04.355Z,9.98
2023-03-26T23:20:12.895Z,9.96
2023-03-26T23:23:21.168Z,9.94
2023-03-26T23:26:32.760Z,9.91
2023-03-26T23:29:38.911Z,9.87
2023-03-26T23:32:38.890Z,9.85
2023-03-26T23:35:31.469Z,9.81
2023-03-26T23:38:43.653Z,9.80
2023-03-26T23:41:46.494Z,9.78
2023-03-26T23:44:54.854Z,9.75
2023-03-26T23:48:01.566Z,9.72
2023-03-26T23:51:10.108Z,9.69
2023-03-26T23:54:18.477Z,9.67
2023-03-26T23:57:25.068Z,9.64
